Hauptseite
METAR-TAF:

METAR-TAF

Flughäfen :

Guernsey,

Flughafen Guernsey

Breite: 49-26N, Länge: 002-36W, Höhe: 102 m

Beobachtung

Neuester Wetterbericht von vor 37 Minuten, um 05:20 UTC
Wind 9 kt aus West
Temperatur 8°C
Luftfeuchtigkeit 87%
Luftdruck 1020 hPa
Sichtweite 10 km oder mehr
Leicht bewölkt in der Höhe von 1600 ft

METAR: EGJB 260520Z 27009KT 9999 FEW016 08/06 Q1020

Zeit: 06:57 (05:57 UTC)

Prognose

Neuester Wetterbericht von vor 1 Stunde und 1 Minuten, um 04:56 UTC
Gültige Prognose vom 26 um 06 UTC bis 26 um 15 UTC
Wind 12 kt aus West
Sichtweite 10 km oder mehr
Leicht bewölkt in der Höhe von 1800 ft
Wahrscheinlichkeit 30% :
Zeitweise
vom 26 um 06 UTC bis 26 um 09 UTC
Sichtweite: 8000 m
Durchbrochene Bewölkung in der Höhe von 1500 ft
Regenschauer

TAF: EGJB 260456Z 2606/2615 26012KT 9999 FEW018 PROB30 TEMPO 2606/2609 8000 SHRA BKN015

Wetterbeobachtungen und Prognosen von mehr als 4000 Flughäfen (METAR und TAF Bericht).

Die verfügbaren Stationen werden durch gelbe und rote Markierungen auf der Karte dargestellt.

Führen Sie die Maus auf sie, um den Namen der Station zu sehen.

Darauf klicken, um die Beobachtung von Wetterbeobachtungen und Prognosen zu sehen.

Um die Karte zu ändern : klicken Sie auf den grünen Tasten mit einem schwarzen Kreuz Zum Vergrößern, auf den grünen Button mit einem Gedankenstrich zu verkleinern, oder auf die grünen Pfeile für benachbarte Karten.


METAR-TAF: